Kezdőlap
METAR-TAF:

METAR-TAF

Repülőterek :

Szingapúr-Changi repülőtér

Szingapúr, Szingapúr

földrajzi szélesség: 01-22N, földrajzi hosszúság: 103-59E, magasság: 5 m

Jelenlegi meteorológiai megfigyelések

A jelentés 10 perccel ezelõtt készült, 03:30 UTC
Déli szél 11 kt
Hőmérséklet 31°C
Páratartalom 63%
Légköri nyomás 1011 hPa
Látótávolság: 8000 m
Kevés felhő 1800 lábon
Szakadozott felhőzet 30000 lábon

METAR: WSSS 150330Z 17011KT 8000 FEW018 BKN300 31/23 Q1011 NOSIG

Idő: 11:40 (03:40 UTC)

Előrejelzés

A jelentés 4 órával és 40 perccel ezelõtt készült, 23:00 UTC
Az előrejelzés 15-én 00 óra UTC és 16-én 06 óra UTC között érvényes
Dél-délkeleti szél 10 kt
Látótávolság 10 km, vagy több
Kevés felhő 1500 lábon
Szórványos felhőzet 2000 lábon

TAF: WSSS 142300Z 1500/1606 16010KT 9999 FEW015 SCT020

Meteorológiai megfigyelések és előrejelzések több, mint 4000 repülőtéren (METAR és TAF jelentéseket).

A térképen piros és sárga pontok jelzik az elérhető meteorológiai állomásokat.

Mozgassa az egeret a pont fölött, hogy megjelenjen az állomás neve.

Azután kattintson az időjárási megfigyelések és előrejelzések megtekintéséhez.

A térkép megváltoztatása: kattintson a fekete keresztel jelölt zöld gombra ráközelítéshez, a vonallal jelölt zöld gombra távolításhoz, vagy a zöld nyilakra a szomszédos térképek eléréséhez.


METAR-TAF: